createdAt,value
2018-02-06T00:01:15.034Z,20.40
2018-02-06T00:03:42.461Z,20.38
2018-02-06T00:06:09.842Z,20.33
2018-02-06T00:08:37.310Z,20.34
2018-02-06T00:11:04.651Z,20.28
2018-02-06T00:13:32.026Z,20.24
2018-02-06T00:15:59.393Z,20.32
2018-02-06T00:18:26.812Z,20.33
2018-02-06T00:20:54.274Z,20.18
2018-02-06T00:23:21.651Z,20.33
2018-02-06T00:25:49.058Z,20.28
2018-02-06T00:28:16.473Z,20.21
2018-02-06T00:30:43.809Z,20.27
2018-02-06T00:33:11.208Z,20.28
2018-02-06T00:35:38.606Z,20.17
2018-02-06T00:38:06.020Z,20.25
2018-02-06T00:40:33.373Z,20.17
2018-02-06T00:43:00.784Z,20.19
2018-02-06T00:45:28.162Z,20.22
2018-02-06T00:47:55.574Z,20.23
2018-02-06T00:50:22.990Z,20.15
2018-02-06T00:52:50.398Z,20.18
2018-02-06T00:55:17.772Z,20.13
2018-02-06T00:57:45.133Z,20.14
2018-02-06T01:00:12.510Z,20.18
2018-02-06T01:02:39.929Z,20.16
2018-02-06T01:05:07.307Z,20.15
2018-02-06T01:07:34.703Z,20.09
2018-02-06T01:10:02.053Z,20.11
2018-02-06T01:12:29.461Z,20.00
2018-02-06T01:14:56.864Z,20.14
2018-02-06T01:17:24.466Z,19.98
2018-02-06T01:19:51.958Z,20.06
2018-02-06T01:22:19.357Z,20.07
2018-02-06T01:24:46.751Z,20.05
2018-02-06T01:27:14.118Z,20.09
2018-02-06T01:29:41.561Z,20.11
2018-02-06T01:32:08.984Z,19.91
2018-02-06T01:34:36.353Z,20.00
2018-02-06T01:37:03.792Z,20.02
2018-02-06T01:39:31.158Z,19.98
2018-02-06T01:41:58.613Z,19.87
2018-02-06T01:44:25.975Z,19.98
2018-02-06T01:46:53.383Z,19.99
2018-02-06T01:49:20.806Z,19.94
2018-02-06T01:51:48.177Z,19.94
2018-02-06T01:54:15.543Z,19.82
2018-02-06T01:56:42.892Z,19.88
2018-02-06T01:59:10.297Z,19.94
2018-02-06T02:01:37.655Z,19.92
2018-02-06T02:04:05.004Z,20.04
2018-02-06T02:06:32.382Z,19.97
2018-02-06T02:08:59.768Z,19.66
2018-02-06T02:11:27.189Z,19.58
2018-02-06T02:13:54.534Z,19.57
2018-02-06T02:16:21.918Z,19.63
2018-02-06T02:18:49.351Z,19.56
2018-02-06T02:21:16.782Z,19.60
2018-02-06T02:23:44.179Z,19.59
2018-02-06T02:26:11.537Z,19.73
2018-02-06T02:28:38.980Z,19.75
2018-02-06T02:31:06.333Z,19.82
2018-02-06T02:33:33.726Z,19.69
2018-02-06T02:36:01.083Z,19.88
2018-02-06T02:38:28.454Z,19.89
2018-02-06T02:40:55.851Z,19.89
2018-02-06T04:38:49.658Z,20.47
2018-02-06T04:41:17.100Z,20.66
2018-02-06T04:43:44.488Z,20.51
2018-02-06T04:46:11.894Z,20.66
2018-02-06T04:48:39.342Z,20.65
2018-02-06T04:51:06.772Z,20.63
2018-02-06T04:53:34.211Z,20.57
2018-02-06T04:56:01.597Z,20.67
2018-02-06T04:58:29.064Z,20.62
2018-02-06T05:00:56.560Z,20.68
2018-02-06T05:03:24.015Z,20.59
2018-02-06T05:05:51.422Z,20.80
2018-02-06T05:08:18.813Z,20.81
2018-02-06T05:10:46.267Z,20.71
2018-02-06T05:13:13.709Z,20.77
2018-02-06T05:15:41.113Z,20.88
2018-02-06T05:18:08.505Z,20.85
2018-02-06T05:20:35.945Z,20.87
2018-02-06T05:23:03.447Z,20.85
2018-02-06T05:25:30.865Z,20.85
2018-02-06T05:27:58.394Z,20.85
2018-02-06T05:30:25.873Z,20.89
2018-02-06T05:32:53.313Z,20.79
2018-02-06T05:35:20.705Z,20.85
2018-02-06T05:37:48.137Z,21.02
2018-02-06T05:40:15.514Z,21.01
2018-02-06T05:42:42.931Z,21.00
2018-02-06T05:45:10.383Z,21.09
2018-02-06T05:47:37.814Z,21.06
2018-02-06T05:50:05.253Z,21.06
2018-02-06T05:52:32.655Z,21.12
2018-02-06T05:55:00.072Z,21.06
2018-02-06T05:57:27.517Z,21.09
2018-02-06T05:59:54.910Z,21.13
2018-02-06T06:02:22.358Z,21.20
2018-02-06T06:04:49.783Z,21.19
2018-02-06T06:07:17.146Z,21.25
2018-02-06T06:09:44.567Z,21.39
2018-02-06T06:12:12.008Z,21.37
2018-02-06T06:14:39.427Z,21.28
2018-02-06T06:17:06.888Z,21.50
2018-02-06T06:19:34.301Z,21.58
2018-02-06T06:22:01.702Z,21.65
2018-02-06T06:24:29.158Z,21.56
2018-02-06T06:26:56.539Z,21.66
2018-02-06T06:29:23.970Z,21.65
2018-02-06T06:31:51.402Z,21.90
2018-02-06T06:34:18.789Z,21.86
2018-02-06T06:36:46.190Z,21.96
2018-02-06T06:39:14.217Z,21.94
2018-02-06T06:41:41.685Z,21.83
2018-02-06T06:44:09.075Z,21.98
2018-02-06T06:46:36.629Z,22.12
2018-02-06T06:49:04.048Z,22.18
2018-02-06T06:51:31.482Z,22.02
2018-02-06T06:53:58.982Z,22.22
2018-02-06T06:56:26.384Z,22.33
2018-02-06T06:58:53.772Z,22.22
2018-02-06T07:01:21.676Z,22.32
2018-02-06T07:03:49.095Z,22.27
2018-02-06T07:06:16.526Z,22.49
2018-02-06T07:08:44.035Z,22.46
2018-02-06T07:11:11.467Z,22.53
2018-02-06T07:13:38.912Z,22.64
2018-02-06T07:16:06.385Z,22.52
2018-02-06T07:18:34.010Z,22.63
2018-02-06T07:21:01.477Z,22.59
2018-02-06T07:23:28.951Z,22.76
2018-02-06T07:25:56.377Z,22.65
2018-02-06T07:28:23.823Z,22.86
2018-02-06T07:30:51.249Z,23.03
2018-02-06T07:33:18.903Z,22.97
2018-02-06T07:35:46.324Z,23.06
2018-02-06T07:38:13.762Z,23.01
2018-02-06T07:40:41.254Z,23.07
2018-02-06T07:43:08.690Z,23.13
2018-02-06T07:45:36.113Z,23.12
2018-02-06T07:48:03.619Z,23.19
2018-02-06T07:50:31.059Z,23.14
2018-02-06T07:52:58.536Z,23.28
2018-02-06T07:55:25.963Z,23.33
2018-02-06T07:57:53.412Z,23.26
2018-02-06T08:00:20.835Z,23.22
2018-02-06T08:02:48.262Z,23.38
2018-02-06T08:05:16.526Z,23.40
2018-02-06T08:07:44.015Z,23.40
2018-02-06T08:10:11.396Z,23.27
2018-02-06T08:12:38.830Z,23.34
2018-02-06T08:15:06.353Z,23.47
2018-02-06T08:17:33.751Z,23.53
2018-02-06T08:20:01.202Z,23.54
2018-02-06T08:22:28.939Z,23.38
2018-02-06T08:24:57.892Z,23.50
2018-02-06T08:27:25.298Z,23.60
2018-02-06T08:29:53.214Z,23.58
2018-02-06T08:32:20.832Z,23.61
2018-02-06T08:34:48.269Z,23.63
2018-02-06T08:37:15.683Z,23.58
2018-02-06T08:39:43.191Z,23.63
2018-02-06T08:42:10.590Z,23.59
2018-02-06T08:44:38.014Z,23.65
2018-02-06T08:47:05.646Z,23.83
2018-02-06T08:49:33.062Z,23.67
2018-02-06T08:52:00.704Z,23.75
2018-02-06T08:54:28.287Z,23.75
2018-02-06T08:56:55.801Z,23.73
2018-02-06T08:59:23.391Z,23.90
2018-02-06T09:01:50.858Z,23.89
2018-02-06T09:04:18.543Z,23.85
2018-02-06T09:06:46.081Z,23.75
2018-02-06T09:09:13.845Z,23.88
2018-02-06T09:11:41.298Z,23.71
2018-02-06T09:14:08.765Z,23.95
2018-02-06T09:16:36.201Z,23.74
2018-02-06T09:19:03.765Z,23.91
2018-02-06T09:21:31.176Z,23.85
2018-02-06T09:23:58.616Z,23.81
2018-02-06T09:26:26.129Z,23.61
2018-02-06T09:28:53.608Z,23.89
2018-02-06T09:31:21.086Z,23.77
2018-02-06T09:33:48.497Z,23.85
2018-02-06T09:36:15.914Z,23.89
2018-02-06T09:38:43.374Z,23.97
2018-02-06T09:41:10.809Z,23.92
2018-02-06T09:43:38.221Z,23.92
2018-02-06T09:46:05.810Z,23.98
2018-02-06T09:48:33.331Z,23.82
2018-02-06T09:51:00.865Z,24.02
2018-02-06T09:53:28.455Z,23.96
2018-02-06T09:55:56.087Z,23.94
2018-02-06T09:58:23.622Z,23.96
2018-02-06T10:00:51.054Z,23.88
2018-02-06T10:03:18.543Z,24.07
2018-02-06T10:05:46.084Z,23.74
2018-02-06T10:08:13.554Z,23.79
2018-02-06T10:10:41.068Z,23.98
2018-02-06T10:13:18.749Z,23.40
2018-02-06T10:15:46.166Z,23.82
2018-02-06T10:18:14.346Z,23.24
2018-02-06T10:20:41.758Z,24.09
2018-02-06T10:23:09.360Z,24.14
2018-02-06T10:25:36.870Z,24.09
2018-02-06T10:28:04.303Z,24.05
2018-02-06T10:30:31.682Z,24.20
2018-02-06T10:32:59.084Z,24.09
2018-02-06T10:35:26.469Z,24.20
2018-02-06T10:37:53.868Z,24.19
2018-02-06T10:40:21.308Z,24.15
2018-02-06T10:42:48.717Z,24.13
2018-02-06T10:45:16.120Z,23.97
2018-02-06T10:47:43.609Z,24.15
2018-02-06T10:50:11.597Z,24.27
2018-02-06T10:52:39.544Z,24.10
2018-02-06T10:55:07.094Z,24.28
2018-02-06T10:57:34.622Z,24.03
2018-02-06T11:00:03.140Z,24.30
2018-02-06T11:02:30.632Z,24.25
2018-02-06T11:04:58.619Z,24.16
2018-02-06T11:07:26.174Z,24.25
2018-02-06T11:09:53.727Z,24.29
2018-02-06T11:12:21.275Z,24.32
2018-02-06T11:14:49.236Z,24.31
2018-02-06T11:17:16.737Z,24.39
2018-02-06T11:19:44.452Z,24.38
2018-02-06T11:22:11.992Z,24.44
2018-02-06T11:24:39.506Z,24.43
2018-02-06T11:27:06.967Z,24.58
2018-02-06T11:32:32.003Z,24.30
2018-02-06T11:34:59.550Z,24.58
2018-02-06T11:37:28.234Z,24.48
2018-02-06T11:39:55.900Z,24.68
2018-02-06T11:42:23.665Z,24.49
2018-02-06T11:44:51.329Z,24.56
2018-02-06T11:47:19.348Z,24.58
2018-02-06T11:49:46.858Z,24.56
2018-02-06T11:52:14.702Z,24.40
2018-02-06T11:54:44.751Z,24.47
2018-02-06T11:57:13.355Z,24.56
2018-02-06T11:59:40.934Z,24.40
2018-02-06T12:02:08.486Z,24.53
2018-02-06T12:04:36.043Z,24.71
2018-02-06T12:07:03.518Z,24.51
2018-02-06T12:09:31.081Z,24.73
2018-02-06T12:11:58.542Z,24.67
2018-02-06T12:14:25.935Z,24.62
2018-02-06T12:16:53.412Z,24.65
2018-02-06T12:19:20.863Z,24.53
2018-02-06T12:21:48.251Z,24.59
2018-02-06T12:24:15.640Z,24.61
2018-02-06T12:26:43.068Z,24.67
2018-02-06T12:29:10.622Z,24.63
2018-02-06T12:31:38.005Z,24.40
2018-02-06T12:34:05.553Z,24.63
2018-02-06T12:36:32.955Z,24.65
2018-02-06T12:39:00.334Z,24.59
2018-02-06T12:41:27.767Z,24.45
2018-02-06T12:43:55.164Z,24.55
2018-02-06T12:46:22.615Z,24.53
2018-02-06T12:48:50.001Z,24.57
2018-02-06T12:51:17.433Z,24.56
2018-02-06T12:53:44.870Z,24.49
2018-02-06T12:56:12.270Z,24.58
2018-02-06T12:58:39.715Z,24.62
2018-02-06T13:01:07.151Z,24.47
2018-02-06T13:03:34.540Z,24.62
2018-02-06T13:06:02.074Z,24.54
2018-02-06T13:08:29.489Z,24.42
2018-02-06T13:10:57.077Z,24.56
2018-02-06T13:13:24.462Z,24.58
2018-02-06T13:15:51.884Z,24.54
2018-02-06T13:18:19.274Z,24.38
2018-02-06T13:20:46.727Z,24.62
2018-02-06T13:23:14.153Z,24.41
2018-02-06T13:25:41.607Z,24.70
2018-02-06T13:28:09.111Z,24.54
2018-02-06T13:30:36.542Z,24.75
2018-02-06T13:33:04.101Z,24.73
2018-02-06T13:35:31.547Z,24.57
2018-02-06T13:37:58.948Z,24.60
2018-02-06T13:40:26.354Z,24.77
2018-02-06T13:42:53.780Z,24.85
2018-02-06T13:45:21.207Z,24.83
2018-02-06T13:47:48.679Z,24.77
2018-02-06T13:50:16.117Z,24.79
2018-02-06T13:52:43.658Z,24.80
2018-02-06T13:55:11.108Z,24.80
2018-02-06T13:57:38.543Z,24.61
2018-02-06T14:00:06.698Z,24.68
2018-02-06T14:02:34.138Z,24.67
2018-02-06T14:05:01.555Z,24.62
2018-02-06T14:07:28.998Z,24.74
2018-02-06T14:09:56.425Z,24.71
2018-02-06T14:12:23.910Z,24.63
2018-02-06T14:14:51.335Z,24.88
2018-02-06T14:17:18.914Z,24.65
2018-02-06T14:19:46.346Z,24.78
2018-02-06T14:22:13.812Z,24.86
2018-02-06T14:24:41.246Z,24.63
2018-02-06T14:27:08.675Z,24.79
2018-02-06T14:29:36.191Z,24.88
2018-02-06T14:32:03.754Z,24.75
2018-02-06T14:34:31.282Z,24.79
2018-02-06T14:36:58.667Z,24.72
2018-02-06T14:39:26.047Z,24.65
2018-02-06T14:41:53.441Z,24.89
2018-02-06T14:44:20.996Z,24.86
2018-02-06T14:46:48.484Z,24.95
2018-02-06T14:49:15.889Z,24.81
2018-02-06T14:51:43.348Z,24.89
2018-02-06T14:54:10.733Z,24.97
2018-02-06T14:56:38.167Z,24.89
2018-02-06T14:59:05.579Z,24.89
2018-02-06T15:01:33.028Z,24.78
2018-02-06T15:04:00.649Z,24.90
2018-02-06T15:06:28.111Z,24.74
2018-02-06T15:08:55.585Z,24.63
2018-02-06T15:11:23.027Z,24.81
2018-02-06T15:13:50.587Z,24.90
2018-02-06T15:16:18.001Z,24.64
2018-02-06T15:18:45.424Z,24.66
2018-02-06T15:21:12.834Z,24.68
2018-02-06T15:23:40.253Z,24.61
2018-02-06T15:26:07.681Z,24.67
2018-02-06T15:28:35.211Z,24.66
2018-02-06T15:31:02.636Z,24.70
2018-02-06T15:33:30.035Z,24.52
2018-02-06T15:35:57.433Z,24.48
2018-02-06T15:38:24.850Z,24.48
2018-02-06T15:40:52.252Z,24.64
2018-02-06T15:43:19.680Z,24.46
2018-02-06T15:45:47.257Z,24.35
2018-02-06T15:48:14.660Z,24.60
2018-02-06T15:50:42.138Z,24.50
2018-02-06T15:53:09.527Z,24.51
2018-02-06T15:55:36.968Z,24.41
2018-02-06T15:58:04.378Z,24.49
2018-02-06T16:00:31.755Z,24.45
2018-02-06T16:02:59.130Z,24.51
2018-02-06T16:05:26.505Z,24.45
2018-02-06T16:07:53.925Z,24.33
2018-02-06T16:10:21.334Z,24.38
2018-02-06T16:12:48.722Z,24.15
2018-02-06T16:15:16.106Z,24.24
2018-02-06T16:17:43.578Z,24.21
2018-02-06T16:20:10.991Z,24.12
2018-02-06T16:22:38.397Z,24.25
2018-02-06T16:25:05.819Z,24.19
2018-02-06T16:27:33.461Z,24.08
2018-02-06T16:30:00.882Z,23.75
2018-02-06T16:32:28.251Z,23.90
2018-02-06T16:34:55.688Z,24.05
2018-02-06T16:37:23.124Z,24.06
2018-02-06T16:39:50.530Z,23.94
2018-02-06T16:42:17.954Z,24.10
2018-02-06T16:44:45.375Z,24.04
2018-02-06T16:47:12.782Z,24.03
2018-02-06T16:49:40.193Z,24.09
2018-02-06T16:52:07.566Z,23.94
2018-02-06T16:54:34.962Z,23.93
2018-02-06T16:57:02.400Z,23.91
2018-02-06T16:59:29.814Z,23.94
2018-02-06T17:01:57.229Z,23.82
2018-02-06T17:04:24.601Z,23.85
2018-02-06T17:06:52.032Z,23.69
2018-02-06T17:09:19.407Z,23.84
2018-02-06T17:11:46.772Z,23.85
2018-02-06T17:14:14.142Z,23.79
2018-02-06T17:16:41.550Z,23.71
2018-02-06T17:19:08.949Z,23.75
2018-02-06T17:21:36.365Z,23.64
2018-02-06T17:24:03.818Z,23.70
2018-02-06T17:26:31.238Z,23.62
2018-02-06T17:28:58.657Z,23.68
2018-02-06T17:31:26.041Z,23.66
2018-02-06T17:33:53.586Z,23.59
2018-02-06T17:36:20.970Z,23.54
2018-02-06T17:38:48.400Z,23.52
2018-02-06T17:41:15.853Z,23.59
2018-02-06T17:43:43.252Z,23.35
2018-02-06T17:46:10.680Z,23.54
2018-02-06T17:48:38.124Z,23.43
2018-02-06T17:51:05.534Z,23.46
2018-02-06T17:53:32.974Z,23.40
2018-02-06T17:56:00.365Z,23.32
2018-02-06T17:58:48.201Z,22.33
2018-02-06T18:01:15.719Z,23.29
2018-02-06T18:03:43.161Z,23.32
2018-02-06T18:06:10.570Z,23.22
2018-02-06T18:08:37.979Z,23.18
2018-02-06T18:11:05.390Z,23.24
2018-02-06T18:13:32.763Z,23.05
2018-02-06T18:16:00.174Z,23.21
2018-02-06T18:18:27.597Z,23.17
2018-02-06T18:20:55.078Z,23.26
2018-02-06T18:23:22.527Z,23.14
2018-02-06T18:25:49.920Z,23.21
2018-02-06T18:28:17.368Z,23.17
2018-02-06T18:30:44.786Z,23.17
2018-02-06T18:33:12.236Z,23.13
2018-02-06T18:35:39.630Z,23.15
2018-02-06T18:38:07.071Z,23.14
2018-02-06T18:40:34.499Z,23.13
2018-02-06T18:43:01.886Z,23.07
2018-02-06T18:45:29.286Z,23.09
2018-02-06T18:47:56.720Z,23.11
2018-02-06T18:50:24.184Z,23.08
2018-02-06T18:52:51.580Z,23.06
2018-02-06T18:55:19.006Z,23.07
2018-02-06T18:57:46.430Z,23.06
2018-02-06T19:00:13.861Z,23.03
2018-02-06T19:02:41.336Z,23.04
2018-02-06T19:05:08.767Z,22.99
2018-02-06T19:07:36.184Z,23.02
2018-02-06T19:10:03.589Z,23.00
2018-02-06T19:12:31.070Z,22.94
2018-02-06T19:14:58.472Z,22.95
2018-02-06T19:17:25.921Z,22.97
2018-02-06T19:19:53.359Z,22.97
2018-02-06T19:22:20.814Z,22.93
2018-02-06T19:24:48.259Z,22.95
2018-02-06T19:27:15.711Z,22.87
2018-02-06T19:29:43.105Z,22.93
2018-02-06T19:32:10.548Z,22.92
2018-02-06T19:34:38.032Z,22.79
2018-02-06T19:37:05.424Z,22.79
2018-02-06T19:39:32.934Z,22.84
2018-02-06T19:42:00.339Z,22.87
2018-02-06T19:44:27.741Z,22.85
2018-02-06T19:46:55.228Z,22.85
2018-02-06T19:49:22.679Z,22.85
2018-02-06T19:51:50.087Z,22.83
2018-02-06T19:54:17.483Z,22.78
2018-02-06T19:56:44.918Z,22.79
2018-02-06T19:59:12.291Z,22.83
2018-02-06T20:01:39.721Z,22.64
2018-02-06T20:04:07.136Z,22.83
2018-02-06T20:06:34.573Z,22.78
2018-02-06T20:09:01.984Z,22.78
2018-02-06T20:11:29.409Z,22.66
2018-02-06T20:13:56.834Z,22.75
2018-02-06T20:16:24.322Z,22.75
2018-02-06T20:18:51.709Z,22.76
2018-02-06T20:21:19.132Z,22.74
2018-02-06T20:23:46.549Z,22.73
2018-02-06T20:26:13.951Z,22.69
2018-02-06T20:28:41.415Z,22.71
2018-02-06T20:31:08.800Z,22.69
2018-02-06T20:33:36.214Z,22.67
2018-02-06T20:36:03.626Z,22.65
2018-02-06T20:38:31.035Z,22.65
2018-02-06T20:40:58.447Z,22.65
2018-02-06T20:43:25.899Z,22.66
2018-02-06T20:45:53.317Z,22.64
2018-02-06T20:48:20.797Z,22.56
2018-02-06T20:50:48.204Z,22.63
2018-02-06T20:53:15.672Z,22.61
2018-02-06T20:55:43.145Z,22.61
2018-02-06T20:58:10.555Z,22.47
2018-02-06T21:00:37.944Z,22.53
2018-02-06T21:03:05.421Z,22.55
2018-02-06T21:05:32.812Z,22.49
2018-02-06T21:08:00.227Z,22.54
2018-02-06T21:10:27.705Z,22.52
2018-02-06T21:12:55.111Z,22.48
2018-02-06T21:15:22.544Z,22.47
2018-02-06T21:17:50.004Z,22.50
2018-02-06T21:20:17.462Z,22.47
2018-02-06T21:22:44.891Z,22.44
2018-02-06T21:25:12.276Z,22.44
2018-02-06T21:27:39.708Z,22.45
2018-02-06T21:30:09.054Z,22.43
2018-02-06T21:32:36.554Z,22.38
2018-02-06T21:35:03.900Z,22.41
2018-02-06T21:37:31.290Z,22.39
2018-02-06T21:39:58.648Z,22.38
2018-02-06T21:42:26.053Z,22.41
2018-02-06T21:44:53.501Z,22.35
2018-02-06T21:47:20.854Z,22.32
2018-02-06T21:49:48.327Z,22.34
2018-02-06T21:52:15.706Z,22.47
2018-02-06T21:54:43.157Z,22.18
2018-02-06T21:57:10.509Z,22.33
2018-02-06T21:59:37.902Z,22.32
2018-02-06T22:02:05.385Z,22.26
2018-02-06T22:04:32.790Z,22.24
2018-02-06T22:07:00.146Z,22.17
2018-02-06T22:09:27.493Z,22.17
2018-02-06T22:11:54.876Z,22.12
2018-02-06T22:14:22.258Z,22.06
2018-02-06T22:16:49.620Z,22.03
2018-02-06T22:19:17.025Z,21.96
2018-02-06T22:21:44.363Z,21.79
2018-02-06T22:24:11.772Z,21.80
2018-02-06T22:26:39.126Z,21.91
2018-02-06T22:29:06.574Z,21.82
2018-02-06T22:31:33.917Z,21.78
2018-02-06T22:34:01.252Z,21.78
2018-02-06T22:36:28.622Z,21.74
2018-02-06T22:38:55.970Z,21.71
2018-02-06T22:41:23.448Z,21.71
2018-02-06T22:43:50.786Z,21.65
2018-02-06T22:46:18.234Z,21.69
2018-02-06T22:48:45.641Z,21.60
2018-02-06T22:51:12.997Z,21.60
2018-02-06T22:53:40.439Z,21.48
2018-02-06T22:56:07.794Z,21.56
2018-02-06T22:58:35.158Z,21.51
2018-02-06T23:01:02.516Z,21.42
2018-02-06T23:03:29.929Z,21.51
2018-02-06T23:05:57.262Z,21.52
2018-02-06T23:08:24.614Z,21.48
2018-02-06T23:10:51.961Z,21.44
2018-02-06T23:13:19.366Z,21.44
2018-02-06T23:15:46.702Z,21.43
2018-02-06T23:18:14.111Z,21.39
2018-02-06T23:20:41.459Z,21.32
2018-02-06T23:23:08.834Z,21.32
2018-02-06T23:25:36.188Z,21.37
2018-02-06T23:28:03.591Z,21.22
2018-02-06T23:30:30.945Z,21.30
2018-02-06T23:32:58.343Z,21.27
2018-02-06T23:35:25.718Z,21.30
2018-02-06T23:37:53.139Z,21.34
2018-02-06T23:40:20.541Z,21.30
2018-02-06T23:42:47.881Z,21.17
2018-02-06T23:45:15.281Z,21.21
2018-02-06T23:47:42.678Z,21.14
2018-02-06T23:50:10.067Z,21.17
2018-02-06T23:52:37.425Z,21.26
2018-02-06T23:55:04.778Z,21.16
2018-02-06T23:57:32.133Z,21.18
2018-02-06T23:59:59.513Z,21.19
